Terminal Aerodrome Forecast
Issued by NWS

Current Version | Previous Version | Text Only | Print | Product List | Glossary On
Versions: 1 2 3 4 5 6 7 8 9 10 11 12 13 14 15
967
FTUS45 KABQ 292334
TAFFMN
TAF
KFMN 292334Z 3000/3024 29015G25KT P6SM FEW250
     FM300200 29011KT P6SM FEW250
     FM300600 31006KT P6SM FEW250
     FM301100 09007KT P6SM FEW180
     FM301900 23009KT P6SM SCT150
     FM302100 23010G19KT P6SM BKN120=

USA.gov is the U.S. government's official web portal to all federal, state and local government web resources and services.